createdAt,value
2018-06-24T00:00:44.556Z,99.67
2018-06-24T00:01:44.538Z,99.26
2018-06-24T00:02:44.531Z,99.77
2018-06-24T00:03:44.519Z,99.47
2018-06-24T00:04:44.516Z,99.57
2018-06-24T00:05:44.500Z,99.37
2018-06-24T00:06:44.488Z,99.57
2018-06-24T00:07:44.493Z,99.77
2018-06-24T00:08:44.461Z,99.47
2018-06-24T00:09:44.458Z,99.88
2018-06-24T00:10:44.446Z,99.67
2018-06-24T00:11:44.438Z,99.57
2018-06-24T00:12:44.453Z,99.57
2018-06-24T00:13:44.426Z,99.83
2018-06-24T00:14:44.402Z,99.63
2018-06-24T00:15:44.418Z,99.21
2018-06-24T00:16:44.374Z,99.42
2018-06-24T00:17:44.367Z,99.99
2018-06-24T00:18:44.359Z,99.99
2018-06-24T00:19:44.345Z,99.99
2018-06-24T00:20:44.332Z,99.99
2018-06-24T00:21:44.332Z,99.99
2018-06-24T00:22:44.315Z,99.93
2018-06-24T00:23:44.323Z,99.99
2018-06-24T00:24:44.296Z,99.99
2018-06-24T00:25:44.278Z,99.99
2018-06-24T00:26:44.269Z,99.99
2018-06-24T00:27:44.260Z,99.93
2018-06-24T00:28:44.276Z,99.93
2018-06-24T00:29:44.244Z,99.99
2018-06-24T00:30:44.229Z,99.99
2018-06-24T00:31:44.219Z,99.99
2018-06-24T00:32:44.211Z,99.68
2018-06-24T00:33:44.194Z,99.58
2018-06-24T00:34:44.188Z,99.38
2018-06-24T00:35:44.176Z,99.27
2018-06-24T00:36:44.167Z,99.22
2018-06-24T00:37:44.150Z,99.38
2018-06-24T00:38:44.143Z,99.27
2018-06-24T00:39:44.133Z,99.68
2018-06-24T00:40:44.118Z,99.33
2018-06-24T00:41:44.114Z,99.02
2018-06-24T00:42:44.100Z,98.71
2018-06-24T00:43:44.091Z,98.61
2018-06-24T00:44:44.084Z,98.61
2018-06-24T00:45:44.064Z,99.02
2018-06-24T00:46:44.057Z,98.82
2018-06-24T00:47:44.047Z,98.71
2018-06-24T00:48:44.037Z,98.16
2018-06-24T00:49:44.047Z,98.41
2018-06-24T00:50:44.025Z,98.41
2018-06-24T00:51:44.005Z,98.51
2018-06-24T00:52:44.003Z,98.10
2018-06-24T00:53:43.985Z,98.10
2018-06-24T00:54:44.016Z,98.20
2018-06-24T00:55:43.961Z,98.10
2018-06-24T00:56:43.953Z,98.41
2018-06-24T00:57:43.936Z,97.89
2018-06-24T00:58:43.927Z,97.48
2018-06-24T00:59:43.913Z,97.89
2018-06-24T01:00:43.908Z,97.89
2018-06-24T01:01:43.898Z,97.89
2018-06-24T01:02:43.888Z,97.58
2018-06-24T01:03:43.881Z,97.23
2018-06-24T01:04:43.865Z,97.74
2018-06-24T01:05:43.880Z,97.79
2018-06-24T01:06:43.838Z,98.10
2018-06-24T01:07:43.835Z,97.79
2018-06-24T01:08:43.823Z,97.74
2018-06-24T01:09:43.811Z,97.79
2018-06-24T01:10:43.795Z,98.25
2018-06-24T01:11:43.786Z,97.74
2018-06-24T01:12:43.778Z,97.44
2018-06-24T01:13:43.767Z,97.44
2018-06-24T01:14:43.759Z,97.54
2018-06-24T01:15:43.748Z,97.74
2018-06-24T01:16:43.740Z,97.74
2018-06-24T01:17:43.723Z,97.85
2018-06-24T01:18:43.710Z,97.23
2018-06-24T01:19:43.699Z,97.08
2018-06-24T01:20:43.691Z,97.39
2018-06-24T01:21:43.701Z,97.19
2018-06-24T01:22:43.694Z,97.54
2018-06-24T01:23:43.656Z,97.23
2018-06-24T01:24:43.647Z,97.60
2018-06-24T01:25:43.663Z,96.51
2018-06-24T01:26:43.658Z,96.20
2018-06-24T01:27:43.619Z,97.44
2018-06-24T01:28:43.606Z,97.23
2018-06-24T01:29:43.593Z,97.44
2018-06-24T01:30:43.580Z,97.13
2018-06-24T01:31:43.570Z,97.07
2018-06-24T01:32:43.564Z,96.92
2018-06-24T01:33:43.552Z,96.97
2018-06-24T01:34:43.543Z,97.38
2018-06-24T01:35:43.533Z,96.87
2018-06-24T01:36:43.519Z,96.56
2018-06-24T01:37:43.534Z,96.91
2018-06-24T01:38:43.493Z,96.91
2018-06-24T01:39:43.484Z,96.91
2018-06-24T01:40:43.471Z,96.95
2018-06-24T01:41:43.468Z,97.06
2018-06-24T01:42:43.454Z,97.37
2018-06-24T01:43:43.445Z,98.08
2018-06-24T01:44:43.438Z,98.19
2018-06-24T01:45:43.417Z,98.39
2018-06-24T01:46:43.409Z,98.70
2018-06-24T01:47:43.397Z,98.80
2018-06-24T01:48:43.385Z,98.65
2018-06-24T01:49:43.384Z,98.24
2018-06-24T01:50:43.368Z,98.18
2018-06-24T01:51:43.359Z,98.38
2018-06-24T01:52:43.349Z,98.49
2018-06-24T01:53:43.331Z,98.69
2018-06-24T01:54:43.352Z,99.21
2018-06-24T01:55:43.316Z,99.72
2018-06-24T01:56:43.306Z,99.62
2018-06-24T01:57:43.292Z,99.72
2018-06-24T01:58:43.279Z,99.51
2018-06-24T01:59:43.270Z,99.51
2018-06-24T02:00:43.258Z,99.82
2018-06-24T02:01:43.252Z,99.99
2018-06-24T02:02:43.240Z,99.99
2018-06-24T02:03:43.231Z,99.99
2018-06-24T02:04:43.220Z,99.99
2018-06-24T02:05:43.221Z,99.99
2018-06-24T02:06:43.195Z,99.99
2018-06-24T02:07:43.192Z,99.99
2018-06-24T02:08:43.174Z,99.99
2018-06-24T02:09:43.169Z,99.99
2018-06-24T02:10:43.156Z,99.99
2018-06-24T02:11:43.141Z,99.99
2018-06-24T02:12:43.128Z,99.99
2018-06-24T02:13:43.128Z,99.99
2018-06-24T02:14:43.111Z,99.99
2018-06-24T02:15:43.118Z,99.99
2018-06-24T02:16:43.095Z,99.99
2018-06-24T02:17:43.074Z,99.99
2018-06-24T02:18:43.067Z,99.99
2018-06-24T02:19:43.057Z,99.99
2018-06-24T02:20:43.043Z,99.99
2018-06-24T02:21:43.040Z,99.99
2018-06-24T02:22:43.034Z,99.99
2018-06-24T02:23:43.014Z,99.99
2018-06-24T02:24:43.005Z,99.99
2018-06-24T02:25:43.014Z,99.99
2018-06-24T02:26:42.980Z,99.99
2018-06-24T02:27:42.972Z,99.99
2018-06-24T02:28:42.967Z,99.99
2018-06-24T02:29:42.947Z,99.99
2018-06-24T02:30:42.943Z,99.99
2018-06-24T02:31:42.930Z,99.99
2018-06-24T02:32:42.916Z,99.99
2018-06-24T02:33:42.909Z,99.99
2018-06-24T02:34:42.899Z,99.99
2018-06-24T02:35:42.887Z,99.99
2018-06-24T02:36:42.902Z,99.99
2018-06-24T02:37:42.859Z,99.99
2018-06-24T02:38:42.850Z,99.99
2018-06-24T02:39:42.838Z,99.99
2018-06-24T02:40:42.825Z,99.99
2018-06-24T02:41:42.821Z,99.99
2018-06-24T02:42:42.811Z,99.99
2018-06-24T02:43:42.798Z,99.99
2018-06-24T02:44:42.783Z,99.99
2018-06-24T02:45:42.778Z,99.99
2018-06-24T02:46:42.767Z,99.99
2018-06-24T02:47:42.783Z,99.99
2018-06-24T02:48:42.747Z,99.99
2018-06-24T02:49:42.728Z,99.99
2018-06-24T02:50:42.720Z,99.99
2018-06-24T02:51:42.709Z,99.99
2018-06-24T02:52:42.696Z,99.99
2018-06-24T02:53:42.708Z,99.99
2018-06-24T02:54:42.682Z,99.99
2018-06-24T02:55:42.672Z,99.99
2018-06-24T02:56:42.676Z,99.99
2018-06-24T02:57:42.650Z,99.99
2018-06-24T02:58:42.664Z,99.84
2018-06-24T02:59:42.634Z,99.90
2018-06-24T03:00:42.643Z,99.43
2018-06-24T03:01:42.612Z,99.22
2018-06-24T03:02:42.593Z,99.49
2018-06-24T03:03:42.623Z,99.49
2018-06-24T03:04:42.567Z,99.49
2018-06-24T03:05:42.577Z,98.46
2018-06-24T03:06:42.551Z,98.25
2018-06-24T03:07:42.550Z,98.36
2018-06-24T03:08:42.537Z,98.25
2018-06-24T03:09:42.527Z,98.46
2018-06-24T03:10:42.505Z,98.77
2018-06-24T03:11:42.495Z,98.67
2018-06-24T03:12:42.487Z,98.05
2018-06-24T03:13:42.479Z,98.16
2018-06-24T03:14:42.500Z,98.25
2018-06-24T03:15:42.454Z,98.16
2018-06-24T03:16:42.439Z,98.46
2018-06-24T03:17:42.434Z,98.42
2018-06-24T03:18:42.422Z,98.62
2018-06-24T03:19:42.413Z,98.52
2018-06-24T03:20:42.403Z,98.72
2018-06-24T03:21:42.383Z,98.42
2018-06-24T03:22:42.387Z,99.13
2018-06-24T03:23:42.364Z,98.42
2018-06-24T03:24:42.362Z,99.13
2018-06-24T03:25:42.391Z,98.93
2018-06-24T03:26:42.334Z,99.34
2018-06-24T03:27:42.324Z,99.13
2018-06-24T03:28:42.315Z,98.52
2018-06-24T03:29:42.303Z,98.93
2018-06-24T03:30:42.290Z,98.11
2018-06-24T03:31:42.285Z,98.00
2018-06-24T03:32:42.274Z,97.19
2018-06-24T03:33:42.255Z,97.49
2018-06-24T03:34:42.246Z,97.96
2018-06-24T03:35:42.254Z,97.75
2018-06-24T03:36:42.265Z,97.80
2018-06-24T03:37:42.219Z,97.39
2018-06-24T03:38:42.212Z,97.14
2018-06-24T03:39:42.210Z,97.04
2018-06-24T03:40:42.188Z,97.34
2018-06-24T03:41:42.197Z,97.50
2018-06-24T03:42:42.165Z,96.69
2018-06-24T03:43:42.152Z,96.58
2018-06-24T03:44:42.138Z,96.58
2018-06-24T03:45:42.133Z,96.48
2018-06-24T03:46:42.120Z,96.38
2018-06-24T03:47:42.109Z,96.07
2018-06-24T03:48:42.095Z,96.79
2018-06-24T03:49:42.102Z,96.58
2018-06-24T03:50:42.092Z,96.07
2018-06-24T03:51:42.067Z,96.74
2018-06-24T03:52:42.076Z,96.23
2018-06-24T03:53:42.067Z,96.23
2018-06-24T03:54:42.037Z,96.23
2018-06-24T03:55:42.021Z,96.03
2018-06-24T03:56:42.008Z,95.98
2018-06-24T03:57:42.031Z,96.29
2018-06-24T03:58:41.992Z,97.52
2018-06-24T03:59:41.979Z,97.21
2018-06-24T04:00:41.970Z,96.70
2018-06-24T04:01:41.957Z,96.19
2018-06-24T04:02:41.945Z,95.73
2018-06-24T04:03:41.941Z,95.88
2018-06-24T04:04:41.984Z,94.65
2018-06-24T04:05:41.914Z,94.71
2018-06-24T04:06:41.901Z,95.02
2018-06-24T04:07:41.890Z,95.12
2018-06-24T04:08:41.905Z,94.60
2018-06-24T04:09:41.871Z,93.89
2018-06-24T04:10:41.861Z,93.89
2018-06-24T04:11:41.851Z,93.38
2018-06-24T04:12:41.840Z,93.48
2018-06-24T04:13:41.823Z,93.74
2018-06-24T04:14:41.816Z,94.06
2018-06-24T04:15:41.803Z,94.77
2018-06-24T04:16:41.789Z,93.65
2018-06-24T04:17:41.786Z,92.42
2018-06-24T04:18:41.776Z,92.42
2018-06-24T04:19:41.785Z,92.21
2018-06-24T04:20:41.749Z,91.76
2018-06-24T04:21:41.742Z,91.15
2018-06-24T04:22:41.733Z,91.35
2018-06-24T04:23:41.719Z,91.66
2018-06-24T04:24:41.711Z,90.49
2018-06-24T04:25:41.734Z,90.19
2018-06-24T04:26:41.685Z,89.47
2018-06-24T04:27:41.674Z,89.37
2018-06-24T04:28:41.661Z,88.24
2018-06-24T04:29:41.656Z,89.12
2018-06-24T04:30:41.646Z,87.79
2018-06-24T04:31:41.632Z,89.73
2018-06-24T04:32:41.623Z,89.32
2018-06-24T04:33:41.607Z,89.12
2018-06-24T04:34:41.599Z,88.92
2018-06-24T04:35:41.608Z,88.71
2018-06-24T04:36:41.581Z,88.92
2018-06-24T04:37:41.564Z,89.94
2018-06-24T04:38:41.558Z,90.04
2018-06-24T04:39:41.544Z,90.14
2018-06-24T04:40:41.566Z,88.26
2018-06-24T04:41:41.530Z,88.78
2018-06-24T04:42:41.515Z,89.02
2018-06-24T04:43:41.504Z,89.12
2018-06-24T04:44:41.495Z,88.06
2018-06-24T04:45:41.481Z,89.39
2018-06-24T04:46:41.472Z,87.76
2018-06-24T04:47:41.458Z,87.65
2018-06-24T04:48:41.447Z,87.76
2018-06-24T04:49:41.442Z,88.32
2018-06-24T04:50:41.429Z,89.04
2018-06-24T04:51:41.432Z,89.34
2018-06-24T04:52:41.404Z,86.80
2018-06-24T04:53:41.395Z,87.51
2018-06-24T04:54:41.387Z,85.77
2018-06-24T04:55:41.387Z,86.08
2018-06-24T04:56:41.396Z,86.39
2018-06-24T04:57:41.354Z,85.77
2018-06-24T04:58:41.341Z,86.04
2018-06-24T04:59:41.327Z,86.96
2018-06-24T05:00:41.324Z,85.13
2018-06-24T05:01:41.310Z,85.22
2018-06-24T05:02:41.300Z,86.15
2018-06-24T05:03:41.284Z,84.47
2018-06-24T05:04:41.275Z,83.15
2018-06-24T05:05:41.265Z,84.27
2018-06-24T05:06:41.262Z,83.65
2018-06-24T05:07:41.266Z,85.28
2018-06-24T05:08:41.237Z,83.25
2018-06-24T05:09:41.224Z,82.43
2018-06-24T05:10:41.217Z,83.76
2018-06-24T05:11:41.197Z,83.04
2018-06-24T05:12:41.218Z,84.17
2018-06-24T05:13:41.180Z,83.72
2018-06-24T05:14:41.170Z,83.72
2018-06-24T05:15:41.163Z,83.82
2018-06-24T05:16:41.142Z,81.38
2018-06-24T05:17:41.136Z,84.19
2018-06-24T05:18:41.132Z,82.05
2018-06-24T05:19:41.124Z,81.24
2018-06-24T05:20:41.108Z,82.21
2018-06-24T05:21:41.094Z,79.77
2018-06-24T05:22:41.085Z,79.57
2018-06-24T05:23:41.100Z,80.08
2018-06-24T05:24:41.062Z,80.15
2018-06-24T05:25:41.054Z,80.96
2018-06-24T05:26:41.052Z,80.96
2018-06-24T05:27:41.115Z,79.84
2018-06-24T05:28:41.023Z,79.43
2018-06-24T05:29:41.015Z,77.56
2018-06-24T05:30:41.000Z,78.28
2018-06-24T05:31:40.982Z,77.97
2018-06-24T05:32:40.976Z,79.39
2018-06-24T05:33:40.965Z,76.65
2018-06-24T05:34:40.977Z,78.08
2018-06-24T05:35:40.941Z,77.77
2018-06-24T05:36:40.928Z,78.64
2018-06-24T05:37:40.920Z,78.64
2018-06-24T05:38:40.910Z,79.46
2018-06-24T05:39:40.903Z,78.95
2018-06-24T05:40:40.893Z,78.55
2018-06-24T05:41:40.881Z,78.71
2018-06-24T05:42:40.884Z,77.70
2018-06-24T05:43:40.852Z,77.59
2018-06-24T05:44:40.840Z,76.28
2018-06-24T05:45:40.861Z,77.59
2018-06-24T05:46:40.830Z,74.95
2018-06-24T05:47:40.817Z,75.46
2018-06-24T05:48:40.804Z,75.05
2018-06-24T05:49:40.794Z,75.73
2018-06-24T05:50:40.791Z,74.44
2018-06-24T05:51:40.776Z,74.14
2018-06-24T05:52:40.768Z,76.14
2018-06-24T05:53:40.749Z,76.03
2018-06-24T05:54:40.739Z,76.07
2018-06-24T05:55:40.725Z,73.13
2018-06-24T05:56:40.731Z,73.39
2018-06-24T05:57:40.704Z,73.09
2018-06-24T05:58:40.698Z,74.01
2018-06-24T05:59:40.687Z,72.78
2018-06-24T06:00:40.676Z,73.29
2018-06-24T06:01:40.696Z,72.99
2018-06-24T06:02:40.656Z,71.64
2018-06-24T06:03:40.635Z,70.72
2018-06-24T06:04:40.632Z,70.32
2018-06-24T06:05:40.621Z,69.81
2018-06-24T06:06:40.605Z,71.13
2018-06-24T06:07:40.594Z,70.69
2018-06-24T06:08:40.585Z,70.59
2018-06-24T06:09:40.574Z,72.58
2018-06-24T06:10:40.564Z,72.17
2018-06-24T06:11:40.614Z,72.55
2018-06-24T06:12:40.563Z,71.53
2018-06-24T06:13:40.541Z,68.40
2018-06-24T06:14:40.518Z,67.68
2018-06-24T06:15:40.505Z,72.01
2018-06-24T06:16:40.494Z,68.60
2018-06-24T06:17:40.488Z,68.46
2018-06-24T06:18:40.477Z,66.44
2018-06-24T06:19:40.473Z,67.05
2018-06-24T06:20:40.451Z,65.42
2018-06-24T06:21:40.455Z,69.07
2018-06-24T06:22:40.457Z,67.82
2018-06-24T06:23:40.426Z,67.62
2018-06-24T06:24:40.416Z,68.63
2018-06-24T06:25:40.403Z,66.27
2018-06-24T06:26:40.388Z,66.98
2018-06-24T06:27:40.409Z,67.59
2018-06-24T06:28:40.364Z,66.98
2018-06-24T06:29:40.357Z,68.30
2018-06-24T06:30:40.348Z,65.97
2018-06-24T06:31:40.344Z,68.33
2018-06-24T06:32:40.327Z,69.92
2018-06-24T06:33:40.321Z,66.07
2018-06-24T06:34:40.303Z,66.30
2018-06-24T06:35:40.290Z,67.08
2018-06-24T06:36:40.330Z,67.42
2018-06-24T06:37:40.273Z,66.88
2018-06-24T06:38:40.292Z,64.55
2018-06-24T06:39:40.248Z,64.76
2018-06-24T06:40:40.236Z,68.43
2018-06-24T06:41:40.228Z,68.33
2018-06-24T06:42:40.225Z,68.60
2018-06-24T06:43:40.238Z,67.22
2018-06-24T06:44:40.201Z,65.29
2018-06-24T06:45:40.246Z,68.53
2018-06-24T06:46:40.178Z,68.84
2018-06-24T06:47:40.162Z,67.29
2018-06-24T06:48:40.156Z,64.55
2018-06-24T06:49:40.144Z,65.47
2018-06-24T06:50:40.136Z,68.60
2018-06-24T06:51:40.127Z,66.20
2018-06-24T06:52:40.115Z,67.89
2018-06-24T06:53:40.099Z,69.01
2018-06-24T06:54:40.118Z,65.94
2018-06-24T06:55:40.084Z,66.47
2018-06-24T06:56:40.073Z,65.87
2018-06-24T06:57:40.060Z,64.35
2018-06-24T06:58:40.052Z,65.64
2018-06-24T06:59:40.034Z,66.55
2018-06-24T07:00:40.053Z,64.62
2018-06-24T07:01:40.052Z,64.02
2018-06-24T07:02:40.007Z,69.38
2018-06-24T07:03:39.997Z,64.73
2018-06-24T07:04:39.987Z,64.52
2018-06-24T07:05:40.014Z,68.37
2018-06-24T07:06:39.972Z,62.33
2018-06-24T07:07:39.948Z,68.16
2018-06-24T07:08:39.944Z,62.90
2018-06-24T07:09:39.976Z,63.99
2018-06-24T07:10:40.094Z,62.67
2018-06-24T07:11:39.903Z,65.10
2018-06-24T07:12:39.893Z,63.41
2018-06-24T07:13:39.885Z,64.93
2018-06-24T07:14:39.877Z,65.84
2018-06-24T07:15:39.897Z,66.07
2018-06-24T07:16:39.859Z,66.38
2018-06-24T07:17:39.845Z,68.02
2018-06-24T07:18:39.834Z,67.01
2018-06-24T07:19:39.819Z,66.13
2018-06-24T07:20:39.862Z,69.07
2018-06-24T07:21:39.804Z,69.81
2018-06-24T07:22:39.791Z,69.51
2018-06-24T07:23:39.783Z,68.29
2018-06-24T07:24:39.815Z,68.29
2018-06-24T07:25:39.786Z,69.24
2018-06-24T07:26:39.776Z,70.65
2018-06-24T07:27:39.777Z,71.88
2018-06-24T07:28:39.731Z,69.34
2018-06-24T07:29:39.716Z,70.72
2018-06-24T07:30:39.703Z,68.29
2018-06-24T07:31:39.691Z,72.65
2018-06-24T07:32:39.681Z,67.89
2018-06-24T07:33:39.823Z,67.76
2018-06-24T07:34:39.662Z,67.35
2018-06-24T07:35:39.653Z,66.33
2018-06-24T07:36:39.643Z,66.84
2018-06-24T07:37:39.659Z,67.76
2018-06-24T07:38:39.662Z,68.56
2018-06-24T07:39:39.603Z,71.20
2018-06-24T07:40:39.617Z,69.27
2018-06-24T07:41:39.587Z,68.36
2018-06-24T07:42:39.575Z,69.27
2018-06-24T07:43:39.574Z,69.07
2018-06-24T07:44:39.550Z,66.24
2018-06-24T07:45:39.543Z,66.74
2018-06-24T07:46:39.539Z,67.85
2018-06-24T07:47:39.545Z,67.28
2018-06-24T07:48:39.534Z,67.68
2018-06-24T07:49:39.502Z,67.18
2018-06-24T07:50:39.485Z,67.85
2018-06-24T07:51:39.477Z,67.25
2018-06-24T07:52:39.467Z,65.32
2018-06-24T07:53:39.479Z,64.69
2018-06-24T07:54:39.449Z,67.01
2018-06-24T07:55:39.436Z,64.99
2018-06-24T07:56:39.423Z,65.47
2018-06-24T07:57:39.414Z,64.22
2018-06-24T07:58:39.406Z,67.22
2018-06-24T07:59:39.395Z,65.47
2018-06-24T08:00:39.382Z,61.13
2018-06-24T08:01:39.377Z,62.74
2018-06-24T08:02:39.356Z,62.01
2018-06-24T08:03:39.348Z,63.82
2018-06-24T08:04:39.363Z,62.21
2018-06-24T08:05:39.324Z,60.09
2018-06-24T08:06:39.321Z,61.37
2018-06-24T08:07:39.308Z,66.25
2018-06-24T08:08:39.297Z,63.82
2018-06-24T08:09:39.288Z,66.05
2018-06-24T08:10:39.273Z,65.34
2018-06-24T08:11:39.260Z,69.28
2018-06-24T08:12:39.257Z,63.93
2018-06-24T08:13:39.245Z,65.44
2018-06-24T08:14:39.228Z,68.17
2018-06-24T08:15:39.245Z,64.94
2018-06-24T08:16:39.213Z,62.71
2018-06-24T08:17:39.198Z,66.86
2018-06-24T08:18:39.192Z,63.42
2018-06-24T08:19:39.186Z,67.16
2018-06-24T08:20:39.186Z,68.67
2018-06-24T08:21:39.161Z,67.26
2018-06-24T08:22:39.143Z,66.89
2018-06-24T08:23:39.133Z,63.55
2018-06-24T08:24:39.121Z,67.16
2018-06-24T08:25:39.109Z,62.85
2018-06-24T08:26:39.151Z,64.87
2018-06-24T08:27:39.092Z,63.35
2018-06-24T08:28:39.082Z,70.02
2018-06-24T08:29:39.070Z,61.83
2018-06-24T08:30:39.064Z,66.08
2018-06-24T08:31:39.078Z,60.29
2018-06-24T08:32:39.055Z,60.80
2018-06-24T08:33:39.031Z,60.42
2018-06-24T08:34:39.023Z,61.80
2018-06-24T08:35:39.019Z,64.40
2018-06-24T08:36:38.996Z,59.25
2018-06-24T08:37:38.981Z,58.14
2018-06-24T08:38:39.024Z,60.66
2018-06-24T08:39:38.963Z,63.56
2018-06-24T08:40:38.961Z,60.64
2018-06-24T08:41:38.944Z,57.41
2018-06-24T08:42:38.953Z,61.52
2018-06-24T08:43:38.925Z,60.28
2018-06-24T08:44:38.909Z,58.16
2018-06-24T08:45:38.900Z,57.65
2018-06-24T08:46:38.884Z,59.75
2018-06-24T08:47:38.875Z,56.40
2018-06-24T08:48:38.867Z,54.28
2018-06-24T08:49:38.869Z,57.78
2018-06-24T08:50:38.850Z,54.86
2018-06-24T08:51:38.835Z,54.63
2018-06-24T08:52:38.826Z,51.11
2018-06-24T08:53:38.842Z,53.90
2018-06-24T08:54:38.798Z,52.39
2018-06-24T08:55:38.789Z,55.31
2018-06-24T08:56:38.791Z,54.78
2018-06-24T08:57:38.770Z,52.44
2018-06-24T08:58:38.763Z,54.28
2018-06-24T08:59:38.755Z,51.56
2018-06-24T09:00:38.775Z,49.68
2018-06-24T09:01:38.728Z,50.28
2018-06-24T09:02:38.722Z,53.83
2018-06-24T09:03:38.707Z,54.03
2018-06-24T09:04:38.716Z,54.73
2018-06-24T09:05:38.688Z,58.15
2018-06-24T09:06:38.673Z,57.92
2018-06-24T09:07:38.663Z,55.51
2018-06-24T09:08:38.653Z,52.69
2018-06-24T09:09:38.667Z,52.89
2018-06-24T09:10:38.638Z,55.74
2018-06-24T09:11:38.624Z,55.74
2018-06-24T09:12:38.613Z,55.87
2018-06-24T09:13:38.608Z,53.42
2018-06-24T09:14:38.592Z,54.43
2018-06-24T09:15:38.613Z,52.31
2018-06-24T09:16:38.570Z,56.34
2018-06-24T09:17:38.563Z,55.33
2018-06-24T09:18:38.544Z,54.35
2018-06-24T09:19:38.537Z,55.87
2018-06-24T09:20:38.544Z,56.27
2018-06-24T09:21:38.529Z,55.87
2018-06-24T09:22:38.509Z,54.88
2018-06-24T09:23:38.494Z,56.16
2018-06-24T09:24:38.486Z,56.84
2018-06-24T09:25:38.505Z,57.04
2018-06-24T09:26:38.457Z,53.80
2018-06-24T09:27:38.485Z,53.02
2018-06-24T09:28:38.439Z,52.51
2018-06-24T09:29:38.427Z,51.91
2018-06-24T09:30:38.425Z,54.46
2018-06-24T09:31:38.429Z,53.83
2018-06-24T09:32:38.429Z,52.11
2018-06-24T09:33:38.384Z,55.41
2018-06-24T09:34:38.448Z,55.41
2018-06-24T09:35:38.384Z,55.66
2018-06-24T09:36:38.397Z,51.24
2018-06-24T09:37:38.366Z,52.24
2018-06-24T09:38:38.331Z,48.52
2018-06-24T09:39:38.323Z,49.60
2018-06-24T09:40:38.313Z,52.12
2018-06-24T09:41:38.301Z,52.22
2018-06-24T09:42:38.298Z,51.49
2018-06-24T09:43:38.285Z,51.01
2018-06-24T09:44:38.277Z,51.31
2018-06-24T09:45:38.265Z,55.68
2018-06-24T09:46:38.248Z,48.38
2018-06-24T09:47:38.267Z,50.29
2018-06-24T09:48:38.234Z,49.60
2018-06-24T09:49:38.223Z,50.18
2018-06-24T09:50:38.211Z,49.98
2018-06-24T09:51:38.197Z,53.90
2018-06-24T09:52:38.187Z,54.20
2018-06-24T09:53:38.194Z,51.87
2018-06-24T09:54:38.173Z,49.16
2018-06-24T09:55:38.164Z,51.56
2018-06-24T09:56:38.148Z,48.43
2018-06-24T09:57:38.139Z,47.93
2018-06-24T09:58:38.123Z,51.56
2018-06-24T09:59:38.116Z,48.86
2018-06-24T10:00:38.102Z,51.19
2018-06-24T10:01:38.093Z,48.25
2018-06-24T10:02:38.086Z,50.89
2018-06-24T10:03:38.092Z,52.26
2018-06-24T10:04:38.061Z,49.05
2018-06-24T10:05:38.049Z,51.64
2018-06-24T10:06:38.044Z,51.17
2018-06-24T10:07:38.034Z,50.24
2018-06-24T10:08:38.047Z,50.21
2018-06-24T10:09:38.023Z,47.31
2018-06-24T10:10:37.995Z,48.81
2018-06-24T10:11:37.986Z,49.81
2018-06-24T10:12:37.976Z,53.22
2018-06-24T10:13:37.970Z,52.92
2018-06-24T10:14:37.961Z,48.81
2018-06-24T10:15:37.948Z,49.01
2018-06-24T10:16:37.937Z,47.45
2018-06-24T10:17:37.928Z,53.47
2018-06-24T10:18:37.911Z,51.46
2018-06-24T10:19:37.980Z,50.04
2018-06-24T10:20:37.893Z,48.23
2018-06-24T10:21:37.884Z,48.91
2018-06-24T10:22:37.870Z,46.06
2018-06-24T10:23:37.860Z,49.49
2018-06-24T10:24:37.850Z,48.19
2018-06-24T10:25:37.843Z,51.57
2018-06-24T10:26:37.833Z,47.88
2018-06-24T10:27:37.820Z,48.69
2018-06-24T10:28:37.814Z,48.08
2018-06-24T10:29:37.803Z,47.99
2018-06-24T10:30:37.817Z,48.79
2018-06-24T10:31:37.781Z,47.58
2018-06-24T10:32:37.766Z,49.76
2018-06-24T10:33:37.756Z,48.99
2018-06-24T10:34:37.751Z,47.86
2018-06-24T10:35:37.737Z,48.19
2018-06-24T10:36:37.730Z,51.51
2018-06-24T10:37:37.711Z,49.91
2018-06-24T10:38:37.708Z,48.23
2018-06-24T10:39:37.695Z,52.94
2018-06-24T10:40:37.685Z,49.33
2018-06-24T10:41:37.695Z,49.76
2018-06-24T10:42:37.667Z,50.26
2018-06-24T10:43:37.650Z,51.17
2018-06-24T10:44:37.639Z,48.33
2018-06-24T10:45:37.627Z,50.51
2018-06-24T10:46:37.645Z,50.01
2018-06-24T10:47:37.609Z,46.78
2018-06-24T10:48:37.600Z,46.16
2018-06-24T10:49:37.592Z,46.06
2018-06-24T10:50:37.574Z,46.64
2018-06-24T10:51:37.592Z,45.50
2018-06-24T10:52:37.562Z,48.69
2018-06-24T10:53:37.550Z,45.20
2018-06-24T10:54:37.559Z,45.59
2018-06-24T10:55:37.528Z,47.89
2018-06-24T10:56:37.538Z,49.99
2018-06-24T10:57:37.508Z,50.17
2018-06-24T10:58:37.500Z,45.05
2018-06-24T10:59:37.492Z,43.79
2018-06-24T11:00:37.476Z,45.24
2018-06-24T11:01:37.479Z,47.99
2018-06-24T11:02:37.487Z,46.06
2018-06-24T11:03:37.444Z,49.46
2018-06-24T11:04:37.434Z,46.24
2018-06-24T11:05:37.422Z,48.54
2018-06-24T11:06:37.419Z,42.63
2018-06-24T11:07:37.405Z,42.85
2018-06-24T11:08:37.395Z,46.54
2018-06-24T11:09:37.383Z,46.01
2018-06-24T11:10:37.378Z,46.12
2018-06-24T11:11:37.367Z,45.50
2018-06-24T11:12:37.360Z,45.17
2018-06-24T11:13:37.374Z,50.17
2018-06-24T11:14:37.331Z,44.17
2018-06-24T11:15:37.322Z,43.87
2018-06-24T11:16:37.313Z,43.99
2018-06-24T11:17:37.300Z,43.71
2018-06-24T11:18:37.297Z,45.04
2018-06-24T11:19:37.287Z,44.06
2018-06-24T11:20:37.275Z,46.18
2018-06-24T11:21:37.268Z,48.08
2018-06-24T11:22:37.249Z,46.91
2018-06-24T11:23:37.244Z,50.11
2018-06-24T11:24:37.250Z,47.50
2018-06-24T11:25:37.238Z,48.01
2018-06-24T11:26:37.207Z,45.92
2018-06-24T11:27:37.201Z,47.63
2018-06-24T11:28:37.189Z,51.67
2018-06-24T11:29:37.199Z,49.08
2018-06-24T11:30:37.170Z,46.57
2018-06-24T11:31:37.173Z,48.25
2018-06-24T11:32:37.147Z,49.56
2018-06-24T11:33:37.151Z,47.96
2018-06-24T11:34:37.123Z,46.75
2018-06-24T11:35:37.118Z,49.18
2018-06-24T11:36:37.109Z,49.60
2018-06-24T11:37:37.091Z,48.30
2018-06-24T11:38:37.088Z,51.31
2018-06-24T11:39:37.075Z,50.53
2018-06-24T11:40:37.091Z,51.04
2018-06-24T11:41:37.051Z,55.55
2018-06-24T11:42:37.045Z,54.17
2018-06-24T11:43:37.042Z,52.37
2018-06-24T11:44:37.022Z,58.50
2018-06-24T11:45:37.017Z,58.29
2018-06-24T11:46:36.999Z,58.50
2018-06-24T11:47:36.988Z,57.72
2018-06-24T11:48:36.977Z,57.85
2018-06-24T11:49:36.970Z,60.16
2018-06-24T11:50:36.960Z,57.55
2018-06-24T11:51:36.965Z,59.16
2018-06-24T11:52:36.936Z,56.14
2018-06-24T11:53:36.927Z,59.26
2018-06-24T11:54:36.909Z,55.33
2018-06-24T11:55:36.901Z,58.78
2018-06-24T11:56:36.900Z,58.53
2018-06-24T11:57:36.882Z,59.96
2018-06-24T11:58:36.867Z,59.33
2018-06-24T11:59:36.856Z,53.90
2018-06-24T12:00:36.846Z,56.01
2018-06-24T12:01:36.857Z,54.50
2018-06-24T12:02:36.930Z,55.00
2018-06-24T12:03:36.816Z,52.89
2018-06-24T12:04:36.809Z,55.31
2018-06-24T12:05:36.795Z,55.28
2018-06-24T12:06:36.801Z,55.81
2018-06-24T12:07:36.770Z,55.51
2018-06-24T12:08:36.764Z,55.94
2018-06-24T12:09:36.751Z,59.16
2018-06-24T12:10:36.743Z,54.73
2018-06-24T12:11:36.762Z,58.75
2018-06-24T12:12:36.717Z,54.03
2018-06-24T12:13:36.710Z,52.31
2018-06-24T12:14:36.701Z,55.87
2018-06-24T12:15:36.713Z,57.17
2018-06-24T12:16:36.683Z,56.04
2018-06-24T12:17:36.675Z,54.05
2018-06-24T12:18:36.658Z,56.87
2018-06-24T12:19:36.647Z,55.87
2018-06-24T12:20:36.634Z,52.34
2018-06-24T12:21:36.627Z,54.35
2018-06-24T12:22:36.651Z,58.45
2018-06-24T12:23:36.611Z,53.52
2018-06-24T12:24:36.600Z,52.31
2018-06-24T12:25:36.588Z,54.43
2018-06-24T12:26:36.575Z,52.62
2018-06-24T12:27:36.563Z,54.53
2018-06-24T12:28:36.561Z,53.55
2018-06-24T12:29:36.586Z,56.57
2018-06-24T12:30:36.554Z,53.55
2018-06-24T12:31:36.525Z,56.27
2018-06-24T12:32:36.536Z,57.98
2018-06-24T12:33:36.521Z,55.99
2018-06-24T12:34:36.491Z,55.87
2018-06-24T12:35:36.481Z,57.07
2018-06-24T12:36:36.471Z,57.28
2018-06-24T12:37:36.459Z,55.16
2018-06-24T12:38:36.474Z,58.58
2018-06-24T12:39:36.432Z,58.78
2018-06-24T12:40:36.421Z,55.54
2018-06-24T12:41:36.413Z,57.85
2018-06-24T12:42:36.405Z,56.95
2018-06-24T12:43:36.396Z,57.48
2018-06-24T12:44:36.381Z,56.07
2018-06-24T12:45:36.370Z,57.00
2018-06-24T12:46:36.362Z,55.69
2018-06-24T12:47:36.355Z,55.39
2018-06-24T12:48:36.343Z,58.01
2018-06-24T12:49:36.358Z,57.90
2018-06-24T12:50:36.318Z,55.82
2018-06-24T12:51:36.304Z,55.84
2018-06-24T12:52:36.292Z,55.71